Time;durP1;ratioP1;P1;durP2;ratioP2;P2;SDS_P1;SDS_P2;PMS_P1;PMS_P2;Temp;Humidity;BMP_temperature;BMP_pressure;BME280_temperature;BME280_humidity;BME280_pressure;Samples;Min_cycle;Max_cycle;Signal;HPM_P1;HPM_P2
2022/12/09 00:00:04;;;;;;;79.78;31.40;;;;;;;1.19;92.56;98494.56;8389740;28;20447;-73
2022/12/09 00:04:26;;;;;;;72.82;29.80;;;;;;;1.15;92.79;98493.50;8361136;28;20052;-73
2022/12/09 00:08:27;;;;;;;70.57;29.58;;;;;;;1.19;92.67;98494.56;8389752;28;20060;-72
2022/12/09 00:12:27;;;;;;;65.15;27.70;;;;;;;1.13;92.69;98500.91;8366180;28;20148;-74
2022/12/09 00:16:29;;;;;;;66.88;28.95;;;;;;;1.06;93.22;98492.38;8387895;28;20123;-73
2022/12/09 00:20:29;;;;;;;63.65;27.77;;;;;;;1.07;93.32;98491.31;8389217;28;20072;-73
2022/12/09 00:24:31;;;;;;;66.07;27.88;;;;;;;1.04;93.77;98497.19;8388753;28;20102;-73
2022/12/09 00:28:32;;;;;;;69.57;28.67;;;;;;;1.03;93.94;98495.56;8381682;28;20037;-72
2022/12/09 00:32:33;;;;;;;68.28;28.40;;;;;;;0.97;93.88;98501.94;8366639;28;20075;-72
2022/12/09 00:36:34;;;;;;;69.60;28.95;;;;;;;0.96;94.20;98500.31;8369057;28;20041;-73
2022/12/09 00:40:35;;;;;;;70.20;29.88;;;;;;;0.92;94.26;98504.56;8373358;28;20041;-73
2022/12/09 00:44:36;;;;;;;69.18;29.23;;;;;;;0.91;94.54;98508.28;8392084;28;20524;-72
2022/12/09 00:48:37;;;;;;;64.38;28.23;;;;;;;0.88;94.78;98503.50;8387320;28;20053;-72
2022/12/09 00:52:38;;;;;;;65.38;28.15;;;;;;;0.82;95.31;98510.66;8382488;28;20045;-72
2022/12/09 00:56:39;;;;;;;72.30;30.58;;;;;;;0.76;95.73;98505.56;8373219;28;20052;-73
2022/12/09 01:00:40;;;;;;;71.00;27.35;;;;;;;0.79;95.28;98505.06;8380533;28;20083;-72
2022/12/09 01:04:41;;;;;;;62.50;27.88;;;;;;;0.78;95.21;98508.78;8376293;28;20072;-72
2022/12/09 01:08:42;;;;;;;70.45;28.92;;;;;;;0.70;95.56;98511.91;8379613;28;20558;-72
2022/12/09 01:12:43;;;;;;;69.43;29.60;;;;;;;0.68;95.31;98508.75;8385997;28;20044;-72
2022/12/09 01:16:44;;;;;;;65.93;28.75;;;;;;;0.63;95.57;98506.88;8376197;28;20044;-73
2022/12/09 01:20:55;;;;;;;64.55;28.55;;;;;;;0.68;95.78;98503.44;8385680;28;20052;-72
2022/12/09 01:24:56;;;;;;;64.95;28.85;;;;;;;0.76;95.38;98510.88;8392683;28;20053;-72
2022/12/09 01:28:57;;;;;;;65.93;28.48;;;;;;;0.85;95.12;98514.63;8399878;28;20060;-73
2022/12/09 01:32:58;;;;;;;65.05;28.40;;;;;;;0.91;95.18;98513.59;8393711;28;20483;-72
2022/12/09 01:36:59;;;;;;;77.10;29.27;;;;;;;0.96;95.05;98505.66;8394346;28;20036;-73
2022/12/09 01:41:00;;;;;;;64.00;28.83;;;;;;;1.00;94.80;98512.06;8396059;28;20427;-72
2022/12/09 01:45:29;;;;;;;69.03;28.73;;;;;;;0.96;95.19;98510.97;8383123;28;20075;-72
2022/12/09 01:49:34;;;;;;;75.18;30.70;;;;;;;0.96;95.00;98504.84;8374632;28;20040;-72
2022/12/09 01:53:37;;;;;;;71.20;30.75;;;;;;;0.90;95.31;98506.69;8387439;28;20044;-73
2022/12/09 01:57:38;;;;;;;73.43;28.27;;;;;;;0.92;95.25;98504.56;8397251;28;20049;-72
2022/12/09 02:01:40;;;;;;;67.00;28.98;;;;;;;0.92;95.09;98499.25;8394769;28;20049;-72
2022/12/09 02:05:43;;;;;;;68.32;28.45;;;;;;;0.93;95.41;98500.88;8374961;28;20064;-73
2022/12/09 02:09:44;;;;;;;64.63;28.63;;;;;;;0.98;95.42;98498.22;8378208;28;20119;-73
2022/12/09 02:13:57;;;;;;;68.40;29.17;;;;;;;0.95;95.42;98498.75;8390167;28;20106;-72
2022/12/09 02:18:04;;;;;;;63.65;28.00;;;;;;;0.96;95.22;98495.00;8382521;28;20057;-73
2022/12/09 02:22:06;;;;;;;66.03;29.60;;;;;;;1.01;95.13;98503.00;8377591;28;20099;-73
2022/12/09 02:26:10;;;;;;;67.38;30.25;;;;;;;1.01;94.99;98497.69;8389325;28;20170;-73
2022/12/09 02:30:20;;;;;;;69.55;30.65;;;;;;;1.01;95.34;98503.00;8382070;28;20044;-72
2022/12/09 02:34:22;;;;;;;67.13;29.73;;;;;;;0.98;95.29;98498.22;8388091;28;20050;-72
2022/12/09 02:38:28;;;;;;;70.13;30.65;;;;;;;0.81;95.96;98492.31;8384325;28;20044;-72
2022/12/09 02:42:33;;;;;;;62.70;28.42;;;;;;;0.79;96.14;98500.53;8411723;28;20144;-72
2022/12/09 02:46:34;;;;;;;69.00;30.02;;;;;;;0.78;96.15;98492.84;8394316;28;20071;-73
2022/12/09 02:50:36;;;;;;;69.10;29.73;;;;;;;0.69;96.45;98494.38;8381226;28;20778;-73
2022/12/09 02:54:38;;;;;;;71.40;32.55;;;;;;;0.64;96.67;98497.00;8372637;28;20052;-72
2022/12/09 02:58:39;;;;;;;70.63;33.17;;;;;;;0.63;96.81;98500.75;8355613;28;20555;-74
2022/12/09 03:02:43;;;;;;;74.68;32.08;;;;;;;0.62;96.90;98488.50;8359081;28;20060;-73
2022/12/09 03:06:49;;;;;;;70.90;29.60;;;;;;;0.64;96.67;98497.00;8358886;28;20449;-73
2022/12/09 03:10:52;;;;;;;67.40;29.90;;;;;;;0.60;96.83;98487.97;8342747;28;20057;-72
2022/12/09 03:14:54;;;;;;;67.35;30.95;;;;;;;0.50;97.02;98485.25;8325592;28;20140;-72
2022/12/09 03:19:04;;;;;;;67.15;30.77;;;;;;;0.43;97.79;98486.28;8325813;28;20786;-72
2022/12/09 03:23:06;;;;;;;67.32;29.90;;;;;;;0.40;97.90;98478.84;8357990;28;20076;-72
2022/12/09 03:27:11;;;;;;;73.05;29.80;;;;;;;0.38;97.87;98472.97;8360807;28;20131;-73
2022/12/09 03:31:14;;;;;;;73.65;30.60;;;;;;;0.43;97.96;98465.03;8374143;28;20045;-73
2022/12/09 03:35:29;;;;;;;71.78;31.27;;;;;;;0.38;97.80;98462.34;8382809;28;20051;-73
2022/12/09 03:39:34;;;;;;;70.70;31.02;;;;;;;0.39;97.63;98469.28;8392665;28;20055;-72
2022/12/09 03:43:40;;;;;;;63.45;30.00;;;;;;;0.43;97.61;98465.03;8379814;28;20052;-72
2022/12/09 03:47:41;;;;;;;62.85;29.58;;;;;;;0.45;97.38;98456.00;8392934;28;20048;-72
2022/12/09 03:51:49;;;;;;;65.95;29.58;;;;;;;0.45;97.51;98466.63;8360188;28;20053;-72
2022/12/09 03:55:58;;;;;;;70.85;32.25;;;;;;;0.38;97.67;98459.69;8379719;28;20056;-72
2022/12/09 04:00:00;;;;;;;72.28;30.30;;;;;;;0.33;98.40;98457.03;8353137;28;20399;-72
2022/12/09 04:04:01;;;;;;;71.30;31.48;;;;;;;0.37;97.91;98447.47;8389872;28;20048;-73
2022/12/09 04:08:02;;;;;;;71.88;31.50;;;;;;;0.37;97.64;98455.44;8317341;28;20464;-72
2022/12/09 04:12:03;;;;;;;69.00;31.05;;;;;;;0.36;97.56;98453.88;8307366;28;20100;-72
2022/12/09 04:16:04;;;;;;;72.35;31.77;;;;;;;0.35;97.62;98457.56;8323654;28;20521;-72
2022/12/09 04:20:06;;;;;;;75.88;33.25;;;;;;;0.29;98.21;98458.59;8322875;28;20098;-73
2022/12/09 04:24:08;;;;;;;74.07;32.28;;;;;;;0.31;97.64;98461.81;8289752;28;20053;-72
2022/12/09 04:28:08;;;;;;;77.45;31.20;;;;;;;0.32;98.02;98463.38;8320879;28;20051;-72
2022/12/09 04:32:09;;;;;;;81.72;35.33;;;;;;;0.29;98.02;98458.59;8322562;28;20052;-73
2022/12/09 04:36:13;;;;;;;88.43;39.92;;;;;;;0.26;98.21;98461.78;8307409;28;20058;-72
2022/12/09 04:40:15;;;;;;;86.55;38.45;;;;;;;0.21;98.08;98467.03;8387085;28;20045;-72
2022/12/09 04:44:16;;;;;;;92.22;38.75;;;;;;;0.18;98.11;98472.88;8389807;28;20516;-72
2022/12/09 04:48:17;;;;;;;97.03;39.63;;;;;;;0.14;97.97;98471.78;8382511;28;20490;-73
2022/12/09 04:52:18;;;;;;;91.15;41.28;;;;;;;0.07;98.22;98476.53;8393098;28;20040;-72
2022/12/09 04:56:20;;;;;;;80.47;36.58;;;;;;;0.08;98.33;98472.81;8384402;28;20049;-72
2022/12/09 05:00:21;;;;;;;77.80;33.30;;;;;;;0.01;98.26;98472.22;8360018;28;20079;-72
2022/12/09 05:04:22;;;;;;;79.28;34.13;;;;;;;-0.04;98.30;98480.16;8381826;28;20075;-72
2022/12/09 05:08:23;;;;;;;80.85;35.03;;;;;;;-0.07;98.52;98480.69;8374769;28;20073;-72
2022/12/09 05:12:24;;;;;;;98.35;39.92;;;;;;;-0.04;98.37;98482.81;8388235;28;20052;-72
2022/12/09 05:16:25;;;;;;;111.53;45.75;;;;;;;0.01;98.68;98488.16;8385234;28;20053;-73
2022/12/09 05:20:28;;;;;;;134.23;52.08;;;;;;;0.08;98.70;98488.75;8371960;28;20406;-72
2022/12/09 05:24:30;;;;;;;161.27;62.97;;;;;;;0.15;98.08;98489.34;8376802;28;20044;-72
2022/12/09 05:28:32;;;;;;;144.95;55.25;;;;;;;0.22;98.18;98484.56;8373285;28;20049;-72
2022/12/09 05:32:32;;;;;;;128.75;48.65;;;;;;;0.27;98.44;98481.94;8373795;28;20484;-73
2022/12/09 05:36:34;;;;;;;112.07;44.83;;;;;;;0.32;98.42;98484.63;8372011;28;20060;-73
2022/12/09 05:40:35;;;;;;;120.97;46.55;;;;;;;0.37;97.91;98483.88;8373800;28;20048;-73
2022/12/09 05:44:36;;;;;;;103.57;42.17;;;;;;;0.41;98.05;98483.09;8377225;28;20713;-73
2022/12/09 05:48:40;;;;;;;89.38;37.90;;;;;;;0.48;97.78;98492.72;8373128;28;20053;-73
2022/12/09 05:52:41;;;;;;;78.15;34.30;;;;;;;0.43;98.31;98486.28;8374130;28;20462;-73
2022/12/09 05:56:42;;;;;;;79.40;36.88;;;;;;;0.51;98.21;98492.19;8342040;28;20132;-73
2022/12/09 06:00:43;;;;;;;72.57;31.98;;;;;;;0.49;98.49;98500.41;8375263;28;20110;-73
2022/12/09 06:04:44;;;;;;;68.97;31.67;;;;;;;0.48;98.52;98498.03;8361890;28;20045;-74
2022/12/09 06:08:45;;;;;;;97.60;42.45;;;;;;;0.40;98.93;98497.44;8380325;28;20064;-73
2022/12/09 06:12:46;;;;;;;134.68;58.47;;;;;;;0.40;99.15;98486.81;8351032;28;20048;-73
2022/12/09 06:16:47;;;;;;;107.22;46.33;;;;;;;0.45;98.99;98493.22;8392823;28;20063;-73
2022/12/09 06:20:48;;;;;;;82.90;36.17;;;;;;;0.50;98.83;98485.25;8383782;28;20041;-73
2022/12/09 06:24:49;;;;;;;71.72;30.88;;;;;;;0.54;98.86;98491.66;8389242;28;20052;-74
2022/12/09 06:28:50;;;;;;;71.53;32.33;;;;;;;0.60;98.37;98495.94;8378201;28;20091;-73
2022/12/09 06:32:52;;;;;;;69.55;30.80;;;;;;;0.48;98.92;98492.72;8389126;28;20044;-73
2022/12/09 06:36:52;;;;;;;70.20;29.88;;;;;;;0.46;98.83;98484.19;8391418;28;20525;-73
2022/12/09 06:40:54;;;;;;;123.35;44.53;;;;;;;0.34;99.42;98493.16;8380369;28;20491;-73
2022/12/09 06:44:55;;;;;;;89.30;36.20;;;;;;;0.33;99.65;98496.06;8338265;28;20052;-73
2022/12/09 06:48:56;;;;;;;86.60;35.45;;;;;;;0.39;99.56;98493.19;8377012;28;20072;-72
2022/12/09 06:52:57;;;;;;;70.30;32.33;;;;;;;0.43;99.16;98496.91;8371505;28;20454;-74
2022/12/09 06:56:58;;;;;;;90.03;37.90;;;;;;;0.48;98.87;98498.03;8353088;28;20049;-73
2022/12/09 07:01:05;;;;;;;86.85;36.47;;;;;;;0.53;98.44;98495.38;8374128;28;20049;-73
2022/12/09 07:05:06;;;;;;;80.53;34.80;;;;;;;0.58;98.45;98498.06;8368044;28;20053;-72
2022/12/09 07:09:19;;;;;;;89.22;37.95;;;;;;;0.54;98.24;98491.66;8373158;28;20075;-73
2022/12/09 07:13:20;;;;;;;80.20;33.97;;;;;;;0.52;98.39;98493.78;8363494;28;20052;-74
2022/12/09 07:17:21;;;;;;;75.50;33.13;;;;;;;0.58;98.49;98484.78;8355982;28;20049;-73
2022/12/09 07:21:23;;;;;;;75.28;32.75;;;;;;;0.62;98.14;98483.19;8373921;28;20036;-72
2022/12/09 07:25:24;;;;;;;92.65;39.53;;;;;;;0.64;98.24;98491.69;8351123;28;20140;-73
2022/12/09 07:29:25;;;;;;;96.22;39.40;;;;;;;0.72;98.07;98489.34;8367989;28;20036;-72
2022/12/09 07:33:27;;;;;;;82.85;34.65;;;;;;;0.76;97.87;98489.63;8374782;28;20053;-73
2022/12/09 07:37:28;;;;;;;71.65;32.95;;;;;;;0.81;97.95;98487.78;8363757;28;20654;-72
2022/12/09 07:41:29;;;;;;;90.85;42.78;;;;;;;0.80;98.14;98490.69;8369406;28;20071;-72
2022/12/09 07:45:33;;;;;;;85.72;40.13;;;;;;;0.88;97.82;98492.88;8353529;28;20065;-73
2022/12/09 07:49:34;;;;;;;87.93;38.33;;;;;;;0.97;97.46;98501.94;8337688;28;20049;-73
2022/12/09 07:53:36;;;;;;;96.50;40.33;;;;;;;1.00;97.47;98512.06;8373016;28;20048;-73
2022/12/09 07:57:37;;;;;;;98.55;42.10;;;;;;;1.08;97.12;98508.88;8372734;28;20079;-73
2022/12/09 08:01:38;;;;;;;86.63;38.03;;;;;;;1.18;97.00;98503.59;8363543;28;20045;-73
2022/12/09 08:05:50;;;;;;;105.28;43.03;;;;;;;1.19;97.19;98505.19;8373732;28;20064;-74
2022/12/09 08:09:53;;;;;;;108.40;40.60;;;;;;;1.22;96.97;98509.97;8368782;28;20052;-74
2022/12/09 08:14:02;;;;;;;100.65;39.42;;;;;;;1.38;96.55;98508.16;8373230;28;20098;-73
2022/12/09 08:18:02;;;;;;;;;;;;;;;1.46;96.61;98530.78;8372467;28;20067;-74
2022/12/09 08:22:04;;;;;;;75.05;32.22;;;;;;;1.52;96.06;98519.09;8369147;28;20386;-73
2022/12/09 08:26:05;;;;;;;81.47;34.63;;;;;;;1.48;95.80;98518.03;8370486;28;21258;-74
2022/12/09 08:30:06;;;;;;;77.47;34.30;;;;;;;1.38;96.01;98512.66;8338938;28;20090;-75
2022/12/09 08:34:08;;;;;;;79.97;33.00;;;;;;;1.36;96.21;98517.47;8368936;28;20178;-74
2022/12/09 08:38:09;;;;;;;73.95;33.60;;;;;;;1.41;95.80;98512.97;8360854;28;20582;-73
2022/12/09 08:42:10;;;;;;;76.03;33.45;;;;;;;1.34;95.98;98511.59;8370122;28;20129;-74
2022/12/09 08:46:11;;;;;;;75.45;33.95;;;;;;;1.46;95.71;98520.16;8368192;28;20049;-73
2022/12/09 08:50:13;;;;;;;71.60;33.35;;;;;;;1.56;94.84;98522.81;8368916;28;20587;-73
2022/12/09 08:54:14;;;;;;;76.65;32.30;;;;;;;1.67;94.46;98521.78;8375763;28;20036;-72
2022/12/09 08:58:15;;;;;;;67.43;32.05;;;;;;;1.72;94.39;98519.13;8366719;28;20480;-73
2022/12/09 09:02:16;;;;;;;64.47;28.30;;;;;;;1.73;94.08;98520.72;8376307;28;20045;-73
2022/12/09 09:06:18;;;;;;;50.58;23.38;;;;;;;1.76;94.24;98520.19;8371137;28;20041;-73
2022/12/09 09:10:19;;;;;;;61.20;29.88;;;;;;;1.81;94.65;98522.84;8369144;28;20053;-73
2022/12/09 09:14:20;;;;;;;58.40;24.30;;;;;;;1.90;94.34;98515.94;8365631;28;20048;-75
2022/12/09 09:18:21;;;;;;;47.25;22.65;;;;;;;1.97;94.28;98516.44;8374410;28;20048;-73
2022/12/09 09:22:24;;;;;;;61.90;24.90;;;;;;;2.02;94.27;98508.47;8391601;28;20037;-72
2022/12/09 09:26:29;;;;;;;59.08;27.10;;;;;;;2.10;94.11;98505.28;8388446;28;20056;-73
2022/12/09 09:30:30;;;;;;;59.35;24.88;;;;;;;2.21;93.74;98497.25;8382299;28;20045;-74
2022/12/09 09:34:31;;;;;;;55.05;24.70;;;;;;;2.27;93.59;98490.88;8351925;28;20052;-74
2022/12/09 09:38:33;;;;;;;39.42;19.02;;;;;;;2.32;93.58;98490.84;8353736;28;20045;-74
2022/12/09 09:42:36;;;;;;;41.60;19.60;;;;;;;2.36;93.15;98490.03;8369806;28;20037;-74
2022/12/09 09:46:41;;;;;;;39.38;20.05;;;;;;;2.45;93.15;98479.63;8380866;28;20052;-73
2022/12/09 09:50:58;;;;;;;36.97;18.33;;;;;;;2.45;92.70;98480.41;8398036;28;20491;-73
2022/12/09 09:55:12;;;;;;;35.28;17.52;;;;;;;2.48;92.87;98489.75;8382699;28;20049;-73
2022/12/09 09:59:29;;;;;;;42.33;19.17;;;;;;;2.48;92.84;98473.75;8397853;28;20044;-74
2022/12/09 10:03:58;;;;;;;46.03;19.45;;;;;;;2.54;92.79;98472.66;8397901;28;20509;-73
2022/12/09 10:08:17;;;;;;;39.38;19.55;;;;;;;2.61;92.30;98473.16;8381039;28;20052;-74
2022/12/09 10:12:41;;;;;;;38.42;19.45;;;;;;;2.69;92.22;98467.28;8363310;28;20041;-73
2022/12/09 10:16:57;;;;;;;39.17;18.95;;;;;;;2.78;92.02;98468.31;8392757;28;20113;-72
2022/12/09 10:20:58;;;;;;;43.03;20.20;;;;;;;2.82;91.87;98458.69;8391285;28;20071;-73
2022/12/09 10:25:06;;;;;;;43.70;17.52;;;;;;;2.88;91.65;98454.94;8397948;28;20102;-73
2022/12/09 10:29:28;;;;;;;32.87;16.17;;;;;;;2.95;91.13;98458.09;8395523;28;20140;-74
2022/12/09 10:33:33;;;;;;;35.20;17.33;;;;;;;3.01;91.02;98455.41;8374324;28;20064;-73
2022/12/09 10:37:35;;;;;;;50.63;19.73;;;;;;;3.11;91.03;98455.34;8392717;28;20041;-74
2022/12/09 10:46:06;;;;;;;55.70;22.85;;;;;;;3.10;90.99;98453.75;8396173;28;20055;-73
2022/12/09 10:50:16;;;;;;;63.65;28.85;;;;;;;3.03;91.44;98458.56;8396489;28;20040;-73
2022/12/09 10:54:31;;;;;;;47.47;20.98;;;;;;;3.03;91.71;98453.25;8382987;28;20190;-72
2022/12/09 10:58:32;;;;;;;54.00;24.88;;;;;;;3.06;91.89;98447.38;8395786;28;20049;-72
2022/12/09 11:02:34;;;;;;;55.42;22.67;;;;;;;3.12;91.77;98443.59;8396053;28;20037;-73
2022/12/09 11:06:39;;;;;;;54.30;21.88;;;;;;;3.20;91.60;98432.34;8394340;28;20053;-74
2022/12/09 11:10:47;;;;;;;38.80;20.30;;;;;;;3.17;91.59;98422.22;8396379;28;20486;-73
2022/12/09 11:14:54;;;;;;;48.20;20.38;;;;;;;3.08;91.62;98418.53;8394480;28;20414;-72
2022/12/09 11:18:55;;;;;;;50.30;20.77;;;;;;;3.07;91.92;98411.63;8395328;28;20395;-72
2022/12/09 11:23:10;;;;;;;46.13;19.50;;;;;;;3.04;91.78;98401.50;8394411;28;20079;-74
2022/12/09 11:27:31;;;;;;;55.08;20.77;;;;;;;3.00;91.98;98405.78;8394793;28;20067;-73
2022/12/09 11:31:37;;;;;;;46.50;19.42;;;;;;;2.95;92.03;98410.09;8382935;28;20044;-73
2022/12/09 11:35:44;;;;;;;34.88;17.52;;;;;;;3.15;92.13;98413.69;8307554;28;20411;-74
2022/12/09 11:39:47;;;;;;;42.45;17.98;;;;;;;3.49;91.28;98403.06;8291264;28;20049;-72
2022/12/09 11:43:55;;;;;;;37.90;18.08;;;;;;;3.67;90.37;98400.47;8324177;28;20053;-73
2022/12/09 11:48:14;;;;;;;30.60;15.73;;;;;;;3.78;89.80;98401.19;8324299;28;20045;-73
2022/12/09 11:52:17;;;;;;;44.85;19.75;;;;;;;3.74;89.41;98400.94;8290936;28;20045;-72
2022/12/09 11:56:21;;;;;;;41.05;17.73;;;;;;;3.63;89.17;98399.44;8323832;28;20072;-72
2022/12/09 12:00:29;;;;;;;43.58;18.60;;;;;;;3.54;89.61;98401.13;8307439;28;20427;-73
2022/12/09 12:04:58;;;;;;;35.97;17.80;;;;;;;3.47;89.72;98395.31;8330065;28;20057;-73
2022/12/09 12:09:25;;;;;;;34.58;16.55;;;;;;;3.42;89.93;98381.22;8247182;28;20046;-73
2022/12/09 12:13:31;;;;;;;36.60;18.20;;;;;;;3.42;90.24;98387.34;8226287;28;20126;-73
2022/12/09 12:17:42;;;;;;;29.90;15.35;;;;;;;3.43;89.74;98383.59;8205277;28;20054;-74
2022/12/09 12:21:55;;;;;;;31.13;15.55;;;;;;;3.35;89.74;98376.97;8209622;28;20054;-72
2022/12/09 12:26:22;;;;;;;27.98;14.95;;;;;;;3.36;89.46;98377.78;8209669;28;20069;-73
2022/12/09 12:30:46;;;;;;;30.85;16.38;;;;;;;3.34;89.43;98369.25;8225869;28;20054;-73
2022/12/09 12:34:54;;;;;;;35.35;17.25;;;;;;;3.31;89.45;98364.47;8211762;28;20053;-74
2022/12/09 12:39:17;;;;;;;41.70;19.38;;;;;;;3.30;89.50;98373.56;8216965;28;20110;-74
2022/12/09 12:49:02;;;;;;;43.10;19.40;;;;;;;3.35;89.47;98368.19;8320003;28;20056;-73
2022/12/09 12:53:05;;;;;;;51.50;22.25;;;;;;;3.36;89.33;98361.78;8282585;28;20507;-73
2022/12/09 12:57:35;;;;;;;41.80;21.55;;;;;;;3.38;89.57;98365.72;8287074;28;20049;-73
2022/12/09 13:01:52;;;;;;;48.15;22.15;;;;;;;3.48;89.58;98364.88;8274532;28;20054;-73
2022/12/09 13:05:55;;;;;;;49.10;24.25;;;;;;;3.61;89.40;98358.88;8281294;28;20046;-74
2022/12/09 13:10:06;;;;;;;63.28;28.52;;;;;;;3.60;89.37;98357.28;8292009;28;20092;-75
2022/12/09 13:14:11;;;;;;;52.00;23.15;;;;;;;3.52;89.61;98355.22;8282999;28;20038;-73
2022/12/09 13:18:21;;;;;;;65.30;26.83;;;;;;;3.36;89.78;98351.09;8285718;28;20061;-74
2022/12/09 13:22:33;;;;;;;50.17;22.92;;;;;;;3.30;90.13;98360.22;8333645;28;20067;-73
2022/12/09 13:27:08;;;;;;;49.92;25.02;;;;;;;3.25;90.59;98370.94;8396828;28;20448;-74
2022/12/09 13:31:09;;;;;;;51.80;25.90;;;;;;;3.16;90.90;98361.94;8357112;28;20045;-73
2022/12/09 13:35:37;;;;;;;63.13;29.98;;;;;;;3.04;91.62;98369.47;8344879;28;20078;-73
2022/12/09 13:39:38;;;;;;;66.22;30.60;;;;;;;2.84;92.32;98365.88;8386108;28;20049;-73
2022/12/09 13:43:39;;;;;;;68.30;29.73;;;;;;;2.77;93.10;98370.72;8389195;28;20518;-74
2022/12/09 13:47:40;;;;;;;88.13;35.72;;;;;;;2.66;93.40;98371.84;8394817;28;20052;-74
2022/12/09 13:51:52;;;;;;;98.15;42.80;;;;;;;2.63;93.70;98364.41;8395892;28;20051;-73
2022/12/09 13:56:00;;;;;;;78.00;34.40;;;;;;;2.64;93.68;98376.66;8382528;28;20060;-72
2022/12/09 14:00:04;;;;;;;61.10;30.00;;;;;;;2.64;93.85;98379.34;8397486;28;20680;-73
2022/12/09 14:04:28;;;;;;;73.03;34.60;;;;;;;2.62;93.87;98384.13;8383685;28;20052;-73
2022/12/09 14:08:33;;;;;;;73.80;33.35;;;;;;;2.57;94.15;98381.50;8396850;28;20044;-74
2022/12/09 14:12:37;;;;;;;65.05;29.02;;;;;;;2.50;94.19;98380.97;8396821;28;20052;-74
2022/12/09 14:16:38;;;;;;;64.55;29.90;;;;;;;2.45;94.29;98375.69;8396838;28;20056;-73
2022/12/09 14:20:39;;;;;;;64.90;29.98;;;;;;;2.41;94.46;98361.31;8387224;28;20132;-74
2022/12/09 14:24:41;;;;;;;68.78;30.95;;;;;;;2.30;94.50;98360.56;8395178;28;20067;-73
2022/12/09 14:28:53;;;;;;;72.30;31.48;;;;;;;2.17;94.93;98355.03;8397122;28;20052;-72
2022/12/09 14:32:55;;;;;;;63.45;29.63;;;;;;;2.10;94.99;98345.47;8380228;28;20056;-73
2022/12/09 14:37:23;;;;;;;75.90;32.03;;;;;;;1.99;95.32;98333.25;8397803;28;20056;-73
2022/12/09 14:41:29;;;;;;;79.78;34.88;;;;;;;1.87;95.88;98332.75;8380336;28;20055;-73
2022/12/09 14:45:59;;;;;;;73.22;32.22;;;;;;;1.74;96.30;98325.34;8388497;28;20056;-72
2022/12/09 14:50:14;;;;;;;73.65;34.17;;;;;;;1.62;96.83;98314.19;8390885;28;20132;-73
2022/12/09 14:54:15;;;;;;;91.30;37.75;;;;;;;1.54;96.90;98314.72;8385748;28;20052;-72
2022/12/09 14:58:20;;;;;;;80.72;36.35;;;;;;;1.47;97.32;98298.25;8382389;28;20037;-74
2022/12/09 15:02:25;;;;;;;83.10;36.25;;;;;;;1.45;97.63;98300.38;8377962;28;20551;-73
2022/12/09 15:06:26;;;;;;;80.50;37.25;;;;;;;1.42;97.80;98300.91;8391061;28;20398;-74
2022/12/09 15:10:32;;;;;;;92.18;40.95;;;;;;;1.37;98.29;98303.59;8378287;28;20053;-73
2022/12/09 15:14:35;;;;;;;112.53;52.83;;;;;;;1.36;98.54;98307.31;8379155;28;20522;-73
2022/12/09 15:18:38;;;;;;;111.95;45.33;;;;;;;1.34;98.75;98298.78;8385145;28;20075;-73
2022/12/09 15:22:39;;;;;;;118.50;46.22;;;;;;;1.37;98.79;98303.59;8393721;28;20121;-74
2022/12/09 15:26:40;;;;;;;129.95;47.03;;;;;;;1.38;98.71;98310.47;8359851;28;20059;-73
2022/12/09 15:30:42;;;;;;;116.40;44.03;;;;;;;1.39;99.15;98301.44;8391715;28;20045;-73
2022/12/09 15:34:44;;;;;;;128.00;45.42;;;;;;;1.39;99.14;98301.44;8356525;28;20060;-74
2022/12/09 15:38:52;;;;;;;119.25;44.80;;;;;;;1.39;99.03;98299.56;8395356;28;20051;-73
2022/12/09 15:42:54;;;;;;;;;;;;;;;1.38;99.19;98294.50;8375442;28;20045;-73
2022/12/09 15:46:56;;;;;;;123.35;43.63;;;;;;;1.39;99.45;98290.78;8387003;28;19948;-74
2022/12/09 15:51:01;;;;;;;108.03;42.90;;;;;;;1.37;99.45;98287.63;8394054;28;20048;-73
2022/12/09 15:55:05;;;;;;;99.18;42.42;;;;;;;1.34;99.85;98296.13;8382511;28;20041;-72
2022/12/09 15:59:15;;;;;;;103.95;42.22;;;;;;;1.33;99.97;98281.22;8370080;28;20052;-73
2022/12/09 16:03:19;;;;;;;110.65;43.78;;;;;;;1.34;100.00;98277.50;8379503;28;20542;-73
2022/12/09 16:07:21;;;;;;;102.88;40.53;;;;;;;1.34;100.00;98282.81;8393666;28;20045;-73
2022/12/09 16:11:36;;;;;;;88.22;40.42;;;;;;;1.32;100.00;98280.47;8394672;28;20101;-73
2022/12/09 16:15:54;;;;;;;97.90;40.85;;;;;;;1.31;100.00;98275.41;8393543;28;20475;-74
2022/12/09 16:19:56;;;;;;;99.22;42.05;;;;;;;1.27;100.00;98273.25;8389638;28;20041;-72
2022/12/09 16:24:06;;;;;;;91.07;41.17;;;;;;;1.23;100.00;98274.88;8389646;28;20064;-72
2022/12/09 16:28:19;;;;;;;102.85;41.65;;;;;;;1.22;100.00;98281.25;8371962;28;20663;-74
2022/12/09 16:32:30;;;;;;;94.07;41.03;;;;;;;1.21;100.00;98279.66;8390096;28;20068;-73
2022/12/09 16:36:31;;;;;;;103.65;43.10;;;;;;;1.26;100.00;98282.31;8386085;28;20098;-73
2022/12/09 16:40:32;;;;;;;102.60;41.58;;;;;;;1.24;100.00;98276.47;8375393;28;20074;-74
2022/12/09 16:44:35;;;;;;;103.30;41.75;;;;;;;1.24;100.00;98273.81;8390756;28;20422;-73
2022/12/09 16:48:36;;;;;;;113.47;46.63;;;;;;;1.20;100.00;98278.06;8369971;28;20135;-73
2022/12/09 16:52:38;;;;;;;105.20;43.53;;;;;;;1.22;100.00;98275.13;8387531;28;20087;-73
2022/12/09 16:56:39;;;;;;;105.30;44.50;;;;;;;1.23;100.00;98277.53;8386564;28;20056;-74
2022/12/09 17:00:40;;;;;;;107.28;45.45;;;;;;;1.26;100.00;98271.69;8382456;28;20079;-72
2022/12/09 17:04:41;;;;;;;122.78;50.38;;;;;;;1.24;100.00;98271.16;8382973;28;20450;-72
2022/12/09 17:08:43;;;;;;;121.10;51.65;;;;;;;1.21;100.00;98269.03;8385577;28;20139;-73
2022/12/09 17:12:44;;;;;;;116.72;49.90;;;;;;;1.22;100.00;98259.97;8383508;28;20080;-73
2022/12/09 17:16:45;;;;;;;122.95;52.58;;;;;;;1.20;100.00;98262.13;8388918;28;20045;-73
2022/12/09 17:20:46;;;;;;;115.85;52.47;;;;;;;1.16;100.00;98263.69;8390351;28;20044;-73
2022/12/09 17:24:48;;;;;;;121.85;53.90;;;;;;;1.15;100.00;98272.75;8395276;28;20572;-73
2022/12/09 17:28:51;;;;;;;125.85;53.13;;;;;;;1.13;100.00;98266.91;8390509;28;20093;-73
2022/12/09 17:32:52;;;;;;;121.30;50.47;;;;;;;1.12;100.00;98281.25;8385482;28;20040;-73
2022/12/09 17:36:54;;;;;;;118.35;51.85;;;;;;;1.10;100.00;98275.44;8387309;28;20509;-73
2022/12/09 17:40:55;;;;;;;124.80;54.03;;;;;;;1.07;100.00;98267.97;8386769;28;20040;-74
2022/12/09 17:44:57;;;;;;;133.90;56.50;;;;;;;1.06;100.00;98263.72;8384983;28;20044;-73
2022/12/09 17:48:59;;;;;;;137.68;56.72;;;;;;;1.06;100.00;98271.69;8386342;28;20479;-72
2022/12/09 17:53:01;;;;;;;134.13;54.92;;;;;;;1.00;100.00;98262.13;8338229;28;20448;-74
2022/12/09 17:57:02;;;;;;;143.50;56.38;;;;;;;1.03;100.00;98255.47;8335884;28;20057;-73
2022/12/09 18:01:04;;;;;;;174.32;64.28;;;;;;;0.99;100.00;98263.19;8350504;28;20106;-72
2022/12/09 18:05:06;;;;;;;151.88;60.78;;;;;;;1.00;100.00;98262.13;8311057;28;20052;-73
2022/12/09 18:09:11;;;;;;;145.30;58.17;;;;;;;1.00;100.00;98246.19;8323164;28;20053;-73
2022/12/09 18:13:13;;;;;;;154.45;58.90;;;;;;;1.02;100.00;98260.00;8352486;28;20046;-72
2022/12/09 18:17:14;;;;;;;154.82;60.30;;;;;;;1.01;100.00;98268.22;8355296;28;20053;-72
2022/12/09 18:21:18;;;;;;;153.25;61.75;;;;;;;1.00;100.00;98262.13;8359303;28;20045;-72
2022/12/09 18:25:19;;;;;;;157.80;60.75;;;;;;;0.98;100.00;98253.63;8380646;28;20040;-72
2022/12/09 18:29:22;;;;;;;161.98;61.13;;;;;;;1.02;100.00;98233.41;8355962;28;20162;-72
2022/12/09 18:33:24;;;;;;;151.40;59.22;;;;;;;0.93;100.00;98250.16;8375624;28;20095;-73
2022/12/09 18:37:26;;;;;;;164.02;62.88;;;;;;;0.89;100.00;98244.59;8379912;28;20096;-72
2022/12/09 18:41:29;;;;;;;168.13;61.50;;;;;;;0.95;100.00;98264.81;8381773;28;20053;-74
2022/12/09 18:45:30;;;;;;;158.18;59.58;;;;;;;0.88;100.00;98269.59;8377410;28;20075;-72
2022/12/09 18:49:32;;;;;;;168.68;61.38;;;;;;;0.86;100.00;98261.06;8378708;28;20348;-71
2022/12/09 18:53:34;;;;;;;176.10;63.85;;;;;;;0.87;100.00;98267.97;8393000;28;20044;-72
2022/12/09 18:57:37;;;;;;;172.40;62.42;;;;;;;0.90;100.00;98262.13;8370564;28;20041;-72
2022/12/09 19:01:41;;;;;;;163.60;61.10;;;;;;;0.94;100.00;98251.78;8358109;28;20489;-71